Brevard, NC (28712)

7:42 PM EST on February 05, 2016 (GMT -0500)
Connestee Fire Main Station | | Change Station
CLOSE
Current Station
Personal Weather Station
Location: Brevard, NC
Elevation: 2910 ft
Nearby Weather Stations
Active Advisory: Flood Warning

Elev 2910 ft 35.15 °N, 82.71 °W | Updated 1 second ago

Clear
Clear
31.1 °F
Feels Like 31 °F
N
2.0
Wind Variable Wind from NNE
Gusts 6.0 mph

Today
High -- | Low -- °F
--% Chance of Precip.
Yesterday
High -- | Low -- °F
Precip. -- in
Pressure 30.38 in
Visibility 10.0 miles
Clouds Clear
Windchill 31 °F
Dew Point 13 °F
Humidity 46%
Rainfall 0.00 in
Snow Depth Not available.
7:27 AM 6:03 PM
Waning Crescent, 8% visible
METAR KAVL 052354Z 33009KT 10SM CLR 02/M11 A3034 RMK AO2 SLP287 T00171111 10050 20011 53010
Pressure 30.38 in
Visibility 10.0 miles
Clouds Clear
Windchill 31 °F
Dew Point 13 °F
Humidity 46%
Rainfall 0.00 in
Snow Depth Not available.
7:27 AM 6:03 PM
Waning Crescent, 8% visible
METAR KAVL 052354Z 33009KT 10SM CLR 02/M11 A3034 RMK AO2 SLP287 T00171111 10050 20011 53010

10-Day Weather Forecast

Almanac

Astronomy

Feb. 05, 2016 Rise Set
Actual Time
Civil Twilight
Nautical Twilight
Astronomical Twilight
Moon
Length of Visible Light
Length of Day
Tomorrow will be .
, % of the Moon is Illuminated

Today's Extremes

State Highs State Lows

Community

WunderPhotos

Upload Photos

1,890,900 photos uploaded!

WunderBlog® & News

Nearby

Air Quality

  Air Quality AQ Index Pollutant
Not available.

Snow Depth

Station Depth Elevation

Earthquake Activity

City Distance Mag. Time & Date
Minimum magnitude displayed is 2.5.

Coastal Water Temperatures

Place Temperature

Stations

Nearby Weather Stations

Station Location Temp. Windchill Dew Point Humidity Wind Precip. Elev Updated Type
                   

Watches & Warnings

Flood Warning
Issued: 1:50 PM EST Feb. 5, 2016 – National Weather Service

The Flood Warning continues for
the French Broad River at Blantyre
* until Saturday.
* At 130 PM Friday the stage was... 17.6 feet.
* Minor flooding is occurring and minor flooding is forecast.
* Flood stage is 16.0 feet
* the river will continue to fall to below flood stage on Saturday.
* Impact... at 17.5 feet... minor flooding on the French Broad River
continues.The river will begin to overtop the Railroad tracks south
of Grove bridge Road. Flooding of most areas between the river and
the Railroad tracks will continue.


Lat... Lon 3538 8257 3537 8250 3529 8254 3521 8267
      3526 8274 3534 8261


Outlaw